Terminal Aerodrome Forecast
Issued by NWS Dodge City, KS

Home | Current Version | Previous Version | Graphics & Text | Print | Product List | Glossary Off
Versions: 1 2 3 4 5 6 7 8 9 10 11 12 13 14 15 16 17 18 19 20

000
FTUS43 KDDC 190057 AAB
TAFDDC
TAF AMD
KDDC 190057Z 1901/1924 20010KT P6SM SKC WS020/22045KT
     FM190600 20013G23KT P6SM SKC
     FM190900 36013G23KT P6SM OVC007
     FM191500 02012KT P6SM OVC010
     FM191800 04012G22KT P6SM OVC020=

USA.gov is the U.S. government's official web portal to all federal, state and local government web resources and services.